Time;durP1;ratioP1;P1;durP2;ratioP2;P2;SDS_P1;SDS_P2;PMS_P1;PMS_P2;Temp;Humidity;BMP_temperature;BMP_pressure;BME280_temperature;BME280_humidity;BME280_pressure;Samples;Min_cycle;Max_cycle;Signal;HPM_P1;HPM_P2
2022/11/02 00:00:36;;;;;;;24.05;3.90;;;;;;;;;;4976915;28;20057;-61
2022/11/02 00:03:02;;;;;;;34.33;4.45;;;;;;;;;;4985540;28;20403;-61
2022/11/02 00:05:29;;;;;;;17.80;3.38;;;;;;;;;;4980743;28;20043;-61
2022/11/02 00:07:55;;;;;;;31.75;4.70;;;;;;;;;;4987453;28;20045;-61
2022/11/02 00:10:22;;;;;;;24.85;3.90;;;;;;;;;;4975273;28;20031;-61
2022/11/02 00:12:49;;;;;;;19.25;4.72;;;;;;;;;;4985945;28;20415;-61
2022/11/02 00:15:15;;;;;;;22.08;3.83;;;;;;;;;;4981712;28;20365;-61
2022/11/02 00:17:43;;;;;;;30.88;4.75;;;;;;;;;;4979170;28;20476;-61
2022/11/02 00:20:10;;;;;;;22.38;3.95;;;;;;;;;;4972377;28;20364;-61
2022/11/02 00:22:37;;;;;;;24.10;4.20;;;;;;;;;;4972704;28;20031;-61
2022/11/02 00:25:04;;;;;;;26.30;3.88;;;;;;;;;;4972368;28;20066;-61
2022/11/02 00:27:31;;;;;;;22.45;3.97;;;;;;;;;;4972308;28;20121;-61
2022/11/02 00:29:58;;;;;;;21.13;3.50;;;;;;;;;;4972561;28;20104;-61
2022/11/02 00:32:24;;;;;;;18.45;4.40;;;;;;;;;;4972065;28;20041;-61
2022/11/02 00:34:51;;;;;;;19.02;3.83;;;;;;;;;;4972357;28;20035;-61
2022/11/02 00:37:17;;;;;;;20.40;3.45;;;;;;;;;;4972351;28;20121;-61
2022/11/02 00:39:43;;;;;;;27.27;4.45;;;;;;;;;;4970916;28;20038;-61
2022/11/02 00:42:10;;;;;;;25.67;3.72;;;;;;;;;;4970828;28;20035;-61
2022/11/02 00:44:36;;;;;;;21.20;3.80;;;;;;;;;;4970799;28;20551;-61
2022/11/02 00:47:02;;;;;;;13.38;3.38;;;;;;;;;;4972406;28;20027;-61
2022/11/02 00:49:28;;;;;;;26.70;3.55;;;;;;;;;;4970577;28;20034;-61
2022/11/02 00:51:55;;;;;;;21.27;4.20;;;;;;;;;;4972260;28;20121;-61
2022/11/02 00:54:22;;;;;;;20.75;4.05;;;;;;;;;;4977715;28;20034;-61
2022/11/02 00:56:49;;;;;;;28.90;4.35;;;;;;;;;;4985120;28;20026;-61
2022/11/02 00:59:16;;;;;;;23.00;3.60;;;;;;;;;;4991308;28;20502;-61
2022/11/02 01:01:46;;;;;;;21.48;4.13;;;;;;;;;;4989193;28;20125;-61
2022/11/02 01:04:19;;;;;;;25.02;4.40;;;;;;;;;;4989769;28;20446;-61
2022/11/02 01:06:45;;;;;;;22.02;3.05;;;;;;;;;;4991140;28;20034;-61
2022/11/02 01:09:13;;;;;;;19.90;3.97;;;;;;;;;;4989706;28;20038;-61
2022/11/02 01:11:40;;;;;;;19.98;3.42;;;;;;;;;;4991109;28;20476;-61
2022/11/02 01:14:06;;;;;;;17.50;3.35;;;;;;;;;;4991290;28;20023;-61
2022/11/02 01:16:32;;;;;;;37.50;6.32;;;;;;;;;;4991009;28;20105;-61
2022/11/02 01:18:58;;;;;;;24.40;4.25;;;;;;;;;;4991120;28;20091;-61
2022/11/02 01:21:25;;;;;;;27.63;3.53;;;;;;;;;;4990818;28;20030;-61
2022/11/02 01:23:51;;;;;;;30.05;6.05;;;;;;;;;;4991006;28;20104;-60
2022/11/02 01:26:18;;;;;;;21.23;3.33;;;;;;;;;;4990466;28;20034;-61
2022/11/02 01:28:44;;;;;;;23.20;3.80;;;;;;;;;;4989749;28;20035;-61
2022/11/02 01:31:11;;;;;;;23.17;4.82;;;;;;;;;;4989248;28;20038;-62
2022/11/02 01:33:42;;;;;;;36.20;4.05;;;;;;;;;;4970883;28;20081;-61
2022/11/02 01:36:08;;;;;;;18.65;3.50;;;;;;;;;;4976630;28;20034;-61
2022/11/02 01:38:35;;;;;;;28.05;4.05;;;;;;;;;;4990455;28;20505;-61
2022/11/02 01:41:01;;;;;;;22.77;4.13;;;;;;;;;;4981299;28;20027;-61
2022/11/02 01:43:28;;;;;;;17.40;3.40;;;;;;;;;;4971485;28;20081;-61
2022/11/02 01:45:56;;;;;;;25.52;3.70;;;;;;;;;;4969787;28;20035;-61
2022/11/02 01:48:26;;;;;;;28.15;5.38;;;;;;;;;;4987134;28;20127;-61
2022/11/02 01:50:53;;;;;;;24.85;3.70;;;;;;;;;;4988607;28;20066;-61
2022/11/02 01:53:19;;;;;;;19.15;3.58;;;;;;;;;;4986200;28;20471;-61
2022/11/02 01:55:45;;;;;;;24.27;4.60;;;;;;;;;;4982531;28;20553;-61
2022/11/02 01:58:12;;;;;;;20.75;2.90;;;;;;;;;;4973633;28;20076;-61
2022/11/02 02:00:39;;;;;;;23.88;3.65;;;;;;;;;;4985480;28;20080;-61
2022/11/02 02:03:09;;;;;;;17.05;3.08;;;;;;;;;;4975775;28;20046;-61
2022/11/02 02:05:41;;;;;;;24.63;2.92;;;;;;;;;;4978488;28;20526;-61
2022/11/02 02:08:09;;;;;;;23.08;3.50;;;;;;;;;;4982836;28;20069;-61
2022/11/02 02:10:35;;;;;;;21.98;3.95;;;;;;;;;;4976444;28;20134;-61
2022/11/02 02:13:05;;;;;;;17.85;3.42;;;;;;;;;;4980884;28;20038;-61
2022/11/02 02:15:42;;;;;;;20.65;3.38;;;;;;;;;;4973160;28;20031;-61
2022/11/02 02:18:26;;;;;;;18.85;2.85;;;;;;;;;;4968958;28;20026;-61
2022/11/02 02:20:53;;;;;;;16.63;3.08;;;;;;;;;;4992163;28;20117;-61
2022/11/02 02:23:38;;;;;;;16.90;2.60;;;;;;;;;;4979149;28;20058;-61
2022/11/02 02:26:13;;;;;;;12.52;2.83;;;;;;;;;;4990323;28;20487;-61
2022/11/02 02:28:49;;;;;;;18.10;2.88;;;;;;;;;;4992555;28;20026;-61
2022/11/02 02:31:30;;;;;;;23.13;3.33;;;;;;;;;;4992537;28;20038;-61
2022/11/02 02:34:00;;;;;;;18.23;2.90;;;;;;;;;;4981745;28;20419;-61
2022/11/02 02:36:33;;;;;;;15.40;2.47;;;;;;;;;;4981223;28;20033;-61
2022/11/02 02:39:06;;;;;;;15.82;2.78;;;;;;;;;;4986097;28;20216;-61
2022/11/02 02:41:35;;;;;;;17.10;2.85;;;;;;;;;;4972679;28;20545;-61
2022/11/02 02:44:02;;;;;;;14.75;3.08;;;;;;;;;;4984264;28;20031;-61
2022/11/02 02:46:32;;;;;;;10.25;3.10;;;;;;;;;;4982379;28;20030;-61
2022/11/02 02:48:58;;;;;;;22.00;2.88;;;;;;;;;;4972566;28;20035;-61
2022/11/02 02:51:29;;;;;;;19.77;3.03;;;;;;;;;;4978486;28;20034;-61
2022/11/02 02:54:07;;;;;;;12.15;2.55;;;;;;;;;;4993325;28;20395;-61
2022/11/02 02:56:39;;;;;;;10.57;3.55;;;;;;;;;;4976014;28;20023;-61
2022/11/02 02:59:07;;;;;;;19.83;3.00;;;;;;;;;;4972937;28;20034;-61
2022/11/02 03:01:33;;;;;;;13.07;2.63;;;;;;;;;;4972503;28;20027;-61
2022/11/02 03:04:00;;;;;;;26.27;2.78;;;;;;;;;;4983656;28;20023;-60
2022/11/02 03:06:29;;;;;;;13.85;2.00;;;;;;;;;;4982376;28;20035;-61
2022/11/02 03:09:17;;;;;;;18.67;3.17;;;;;;;;;;4991632;28;20030;-61
2022/11/02 03:11:56;;;;;;;11.75;2.90;;;;;;;;;;4979732;28;20035;-61
2022/11/02 03:14:32;;;;;;;11.65;2.45;;;;;;;;;;4988582;28;20450;-61
2022/11/02 03:17:03;;;;;;;16.08;2.70;;;;;;;;;;4990536;28;20122;-61
2022/11/02 03:19:30;;;;;;;15.07;2.40;;;;;;;;;;4981545;28;20030;-61
2022/11/02 03:22:02;;;;;;;14.27;2.88;;;;;;;;;;4972160;28;20526;-61
2022/11/02 03:24:29;;;;;;;12.60;2.33;;;;;;;;;;4971729;28;20034;-61
2022/11/02 03:27:24;;;;;;;15.77;3.25;;;;;;;;;;4984951;28;20034;-61
2022/11/02 03:29:58;;;;;;;20.55;3.47;;;;;;;;;;4981393;28;20042;-61
2022/11/02 03:32:31;;;;;;;7.85;2.25;;;;;;;;;;4983401;28;20045;-61
2022/11/02 03:34:58;;;;;;;16.80;2.78;;;;;;;;;;4990472;28;20030;-61
2022/11/02 03:37:41;;;;;;;15.25;1.85;;;;;;;;;;4973452;28;20556;-61
2022/11/02 03:40:15;;;;;;;11.77;2.35;;;;;;;;;;4971946;28;20033;-61
2022/11/02 03:42:43;;;;;;;17.60;3.88;;;;;;;;;;4984840;28;20604;-61
2022/11/02 03:45:18;;;;;;;13.35;4.07;;;;;;;;;;4982910;28;20022;-61
2022/11/02 03:47:47;;;;;;;17.17;2.45;;;;;;;;;;4971691;28;20038;-61
2022/11/02 03:50:16;;;;;;;12.43;2.00;;;;;;;;;;4979235;28;20617;-60
2022/11/02 03:52:44;;;;;;;17.02;2.55;;;;;;;;;;4979584;28;20490;-61
2022/11/02 03:55:13;;;;;;;9.98;2.40;;;;;;;;;;4986497;28;20030;-60
2022/11/02 03:57:45;;;;;;;12.70;2.45;;;;;;;;;;4990765;28;20026;-60
2022/11/02 04:00:23;;;;;;;11.52;2.70;;;;;;;;;;4987148;28;20107;-60
2022/11/02 04:03:03;;;;;;;8.75;2.58;;;;;;;;;;4972224;28;20047;-60
2022/11/02 04:05:36;;;;;;;14.02;2.50;;;;;;;;;;4990376;28;20034;-60
2022/11/02 04:08:23;;;;;;;17.90;2.50;;;;;;;;;;4991015;28;20533;-60
2022/11/02 04:16:27;;;;;;;12.65;2.35;;;;;;;;;;4990185;28;20487;-61
2022/11/02 04:21:39;;;;;;;16.23;2.95;;;;;;;;;;4989993;28;20031;-61
2022/11/02 04:26:50;;;;;;;21.30;3.20;;;;;;;;;;4991630;28;20034;-61
2022/11/02 04:29:17;;;;;;;16.25;2.65;;;;;;;;;;4990510;28;20167;-65
2022/11/02 04:31:44;;;;;;;10.65;2.53;;;;;;;;;;4983575;28;20046;-66
2022/11/02 04:34:11;;;;;;;17.52;3.13;;;;;;;;;;4971102;28;20100;-65
2022/11/02 04:36:39;;;;;;;14.07;2.80;;;;;;;;;;4970166;28;20034;-65
2022/11/02 04:39:07;;;;;;;10.75;1.98;;;;;;;;;;4970915;28;20035;-65
2022/11/02 04:41:42;;;;;;;11.70;2.58;;;;;;;;;;4972376;28;20368;-65
2022/11/02 04:44:19;;;;;;;13.63;2.53;;;;;;;;;;4970891;28;20058;-65
2022/11/02 04:46:54;;;;;;;11.82;2.60;;;;;;;;;;4970659;28;20039;-65
2022/11/02 04:49:24;;;;;;;19.63;2.85;;;;;;;;;;5003455;28;20035;-65
2022/11/02 04:51:50;;;;;;;24.40;3.95;;;;;;;;;;4979773;28;20043;-66
2022/11/02 04:54:18;;;;;;;20.67;2.72;;;;;;;;;;4981037;28;20564;-65
2022/11/02 04:56:49;;;;;;;18.67;3.47;;;;;;;;;;4986444;28;20033;-65
2022/11/02 04:59:16;;;;;;;22.42;3.08;;;;;;;;;;4970955;28;20526;-65
2022/11/02 05:01:42;;;;;;;21.35;4.10;;;;;;;;;;4991700;28;20039;-65
2022/11/02 05:04:09;;;;;;;18.15;2.92;;;;;;;;;;4977998;28;20487;-65
2022/11/02 05:06:36;;;;;;;22.33;4.70;;;;;;;;;;4989087;28;20117;-65
2022/11/02 05:09:03;;;;;;;21.60;3.88;;;;;;;;;;4989555;28;20042;-65
2022/11/02 05:11:30;;;;;;;23.58;5.22;;;;;;;;;;4989863;28;20050;-65
2022/11/02 05:13:57;;;;;;;29.20;3.30;;;;;;;;;;4989663;28;20034;-65
2022/11/02 05:16:23;;;;;;;27.48;3.85;;;;;;;;;;4973429;28;20483;-65
2022/11/02 05:18:52;;;;;;;18.80;3.08;;;;;;;;;;4989518;28;20061;-65
2022/11/02 05:21:19;;;;;;;21.98;4.20;;;;;;;;;;4978470;28;20444;-65
2022/11/02 05:23:47;;;;;;;19.85;3.63;;;;;;;;;;4970303;28;20034;-65
2022/11/02 05:26:13;;;;;;;21.08;3.20;;;;;;;;;;4971584;28;20039;-65
2022/11/02 05:28:43;;;;;;;23.13;3.67;;;;;;;;;;4970198;28;20117;-65
2022/11/02 05:31:10;;;;;;;21.20;2.90;;;;;;;;;;4971247;28;20408;-65
2022/11/02 05:33:36;;;;;;;18.77;3.30;;;;;;;;;;4976957;28;20034;-65
2022/11/02 05:36:09;;;;;;;21.55;3.67;;;;;;;;;;4986725;28;20492;-65
2022/11/02 05:38:38;;;;;;;25.45;3.22;;;;;;;;;;4974432;28;20027;-65
2022/11/02 05:41:05;;;;;;;18.45;3.63;;;;;;;;;;4984936;28;20604;-65
2022/11/02 05:43:35;;;;;;;15.90;3.40;;;;;;;;;;4983419;28;20038;-65
2022/11/02 05:46:04;;;;;;;20.20;4.50;;;;;;;;;;4978663;28;20126;-65
2022/11/02 05:48:31;;;;;;;20.85;3.67;;;;;;;;;;4984623;28;20056;-65
2022/11/02 05:50:58;;;;;;;20.80;3.50;;;;;;;;;;4975256;28;20537;-65
2022/11/02 05:53:25;;;;;;;22.13;4.05;;;;;;;;;;4977471;28;20027;-65
2022/11/02 05:55:52;;;;;;;18.35;4.18;;;;;;;;;;4977112;28;20027;-65
2022/11/02 05:58:18;;;;;;;25.98;3.80;;;;;;;;;;4990483;28;20030;-65
2022/11/02 06:00:44;;;;;;;28.05;4.32;;;;;;;;;;4990691;28;20472;-65
2022/11/02 06:03:10;;;;;;;26.45;4.38;;;;;;;;;;4990018;28;20059;-65
2022/11/02 06:05:36;;;;;;;17.73;3.42;;;;;;;;;;4990325;28;20038;-65
2022/11/02 06:08:03;;;;;;;23.30;3.13;;;;;;;;;;4990304;28;20030;-68
2022/11/02 06:10:29;;;;;;;20.63;3.47;;;;;;;;;;4989396;28;20034;-65
2022/11/02 06:12:56;;;;;;;27.67;4.72;;;;;;;;;;4984521;28;20027;-65
2022/11/02 06:15:23;;;;;;;17.80;3.00;;;;;;;;;;4990421;28;20441;-65
2022/11/02 06:17:50;;;;;;;23.77;4.63;;;;;;;;;;4974180;28;20478;-65
2022/11/02 06:20:17;;;;;;;25.50;3.45;;;;;;;;;;4975233;28;20033;-65
2022/11/02 06:22:43;;;;;;;23.92;3.38;;;;;;;;;;4990508;28;20049;-65
2022/11/02 06:25:09;;;;;;;24.38;4.43;;;;;;;;;;4990098;28;20075;-65
2022/11/02 06:27:36;;;;;;;24.55;3.22;;;;;;;;;;4989964;28;20068;-65
2022/11/02 06:30:04;;;;;;;28.20;3.40;;;;;;;;;;4971900;28;20122;-65
2022/11/02 06:32:30;;;;;;;27.98;3.67;;;;;;;;;;4970524;28;20023;-65
2022/11/02 06:34:56;;;;;;;24.40;3.40;;;;;;;;;;4989673;28;20022;-65
2022/11/02 06:37:22;;;;;;;27.02;4.28;;;;;;;;;;4990206;28;20038;-65
2022/11/02 06:39:49;;;;;;;17.70;3.05;;;;;;;;;;4984438;28;20540;-65
2022/11/02 06:42:15;;;;;;;22.17;3.60;;;;;;;;;;4978449;28;20027;-65
2022/11/02 06:44:41;;;;;;;21.40;3.40;;;;;;;;;;4984777;28;20480;-65
2022/11/02 06:47:07;;;;;;;25.13;3.60;;;;;;;;;;4972215;28;20030;-65
2022/11/02 06:49:33;;;;;;;22.63;3.17;;;;;;;;;;4970653;28;20041;-65
2022/11/02 06:51:59;;;;;;;21.02;4.47;;;;;;;;;;4970349;28;20092;-65
2022/11/02 06:54:25;;;;;;;23.48;3.15;;;;;;;;;;4970459;28;20089;-65
2022/11/02 06:56:51;;;;;;;19.67;3.70;;;;;;;;;;4971808;28;20113;-65
2022/11/02 06:59:18;;;;;;;18.05;4.10;;;;;;;;;;4986722;28;20026;-65
2022/11/02 07:01:44;;;;;;;19.85;3.47;;;;;;;;;;4992468;28;20096;-65
2022/11/02 07:04:10;;;;;;;21.60;4.20;;;;;;;;;;4991773;28;20022;-65
2022/11/02 07:06:36;;;;;;;17.85;3.05;;;;;;;;;;4992422;28;20039;-65
2022/11/02 07:09:02;;;;;;;20.40;3.67;;;;;;;;;;4993094;28;20041;-65
2022/11/02 07:11:28;;;;;;;10.15;2.78;;;;;;;;;;4987778;28;20045;-65
2022/11/02 07:13:54;;;;;;;16.15;3.50;;;;;;;;;;4983314;28;20035;-61
2022/11/02 07:16:20;;;;;;;26.98;4.05;;;;;;;;;;4984849;28;20440;-61
2022/11/02 07:18:46;;;;;;;30.08;4.60;;;;;;;;;;4983242;28;20406;-65
2022/11/02 07:21:12;;;;;;;20.85;4.53;;;;;;;;;;4984407;28;20098;-65
2022/11/02 07:23:38;;;;;;;16.58;3.75;;;;;;;;;;4983325;28;20109;-65
2022/11/02 07:26:05;;;;;;;24.20;5.10;;;;;;;;;;4982289;28;20098;-65
2022/11/02 07:28:31;;;;;;;16.80;3.90;;;;;;;;;;4982119;28;20077;-67
2022/11/02 07:30:57;;;;;;;29.90;5.25;;;;;;;;;;4982265;28;20022;-65
2022/11/02 07:33:23;;;;;;;25.10;4.25;;;;;;;;;;4973600;28;20561;-65
2022/11/02 07:35:49;;;;;;;17.50;4.47;;;;;;;;;;4978921;28;20108;-65
2022/11/02 07:38:15;;;;;;;29.02;4.40;;;;;;;;;;4980595;28;20014;-65
2022/11/02 07:40:41;;;;;;;22.52;3.88;;;;;;;;;;4984635;28;20095;-65
2022/11/02 07:43:07;;;;;;;22.83;3.80;;;;;;;;;;4984834;28;20026;-65
2022/11/02 07:46:12;;;;;;;14.95;4.10;;;;;;;;;;5002658;28;20412;-65
2022/11/02 07:48:38;;;;;;;20.45;3.80;;;;;;;;;;5000477;28;20046;-65
2022/11/02 07:51:05;;;;;;;21.30;4.28;;;;;;;;;;5001284;28;20422;-65
2022/11/02 07:53:32;;;;;;;40.28;7.18;;;;;;;;;;4998798;28;20130;-65
2022/11/02 07:55:59;;;;;;;22.23;3.88;;;;;;;;;;5006555;28;20084;-65
2022/11/02 07:58:25;;;;;;;18.98;3.90;;;;;;;;;;5002592;28;20038;-65
2022/11/02 08:00:53;;;;;;;25.42;5.13;;;;;;;;;;5001778;28;20093;-65
2022/11/02 08:03:19;;;;;;;20.13;3.92;;;;;;;;;;4993990;28;20057;-65
2022/11/02 08:05:45;;;;;;;23.83;5.68;;;;;;;;;;4976943;28;20030;-65
2022/11/02 08:08:15;;;;;;;23.40;3.60;;;;;;;;;;4993338;28;20027;-65
2022/11/02 08:10:42;;;;;;;30.60;5.85;;;;;;;;;;4992516;28;20038;-65
2022/11/02 08:13:09;;;;;;;24.65;4.45;;;;;;;;;;5005131;28;20034;-65
2022/11/02 08:15:36;;;;;;;28.50;5.30;;;;;;;;;;5012510;28;20121;-65
2022/11/02 08:18:22;;;;;;;27.83;7.72;;;;;;;;;;4984326;28;20038;-65
2022/11/02 08:20:49;;;;;;;28.92;5.07;;;;;;;;;;4980203;28;20496;-65
2022/11/02 08:23:17;;;;;;;27.65;5.63;;;;;;;;;;4988310;28;20022;-65
2022/11/02 08:25:44;;;;;;;34.80;6.25;;;;;;;;;;4983815;28;20054;-65
2022/11/02 08:28:15;;;;;;;31.25;4.18;;;;;;;;;;4983425;28;20476;-65
2022/11/02 08:30:41;;;;;;;21.98;4.25;;;;;;;;;;4984262;28;20031;-65
2022/11/02 08:33:11;;;;;;;38.33;5.18;;;;;;;;;;4986572;28;20022;-65
2022/11/02 08:35:38;;;;;;;29.55;4.75;;;;;;;;;;4991536;28;20030;-65
2022/11/02 08:38:05;;;;;;;33.78;5.90;;;;;;;;;;4985673;28;20492;-65
2022/11/02 08:40:31;;;;;;;22.70;3.88;;;;;;;;;;4988005;28;20041;-64
2022/11/02 08:42:58;;;;;;;33.20;4.50;;;;;;;;;;4975393;28;20043;-65
2022/11/02 08:45:24;;;;;;;30.80;4.78;;;;;;;;;;4973752;28;20122;-65
2022/11/02 08:47:50;;;;;;;31.23;4.53;;;;;;;;;;4978926;28;20105;-65
2022/11/02 08:50:16;;;;;;;28.15;5.22;;;;;;;;;;4985712;28;20117;-65
2022/11/02 08:52:42;;;;;;;21.67;4.82;;;;;;;;;;4974390;28;20042;-65
2022/11/02 08:55:09;;;;;;;30.60;5.05;;;;;;;;;;4983398;28;20112;-65
2022/11/02 08:57:45;;;;;;;33.22;6.47;;;;;;;;;;4988854;28;20023;-65
2022/11/02 09:00:11;;;;;;;29.15;5.20;;;;;;;;;;4986720;28;20046;-65
2022/11/02 09:02:37;;;;;;;28.92;4.72;;;;;;;;;;4987579;28;20061;-65
2022/11/02 09:05:03;;;;;;;27.88;6.00;;;;;;;;;;4979701;28;20043;-65
2022/11/02 09:07:30;;;;;;;25.73;4.57;;;;;;;;;;4978780;28;20038;-65
2022/11/02 09:09:56;;;;;;;27.02;5.75;;;;;;;;;;4980200;28;20037;-65
2022/11/02 09:12:22;;;;;;;26.20;4.10;;;;;;;;;;4982976;28;20031;-65
2022/11/02 09:14:48;;;;;;;23.90;5.60;;;;;;;;;;4986074;28;20034;-65
2022/11/02 09:17:14;;;;;;;20.05;4.22;;;;;;;;;;4976578;28;20083;-65
2022/11/02 09:19:40;;;;;;;25.73;3.70;;;;;;;;;;4982886;28;20031;-65
2022/11/02 09:22:06;;;;;;;34.30;4.90;;;;;;;;;;4976761;28;20353;-65
2022/11/02 09:24:33;;;;;;;23.23;4.07;;;;;;;;;;4982148;28;20042;-65
2022/11/02 09:26:59;;;;;;;25.40;3.55;;;;;;;;;;4979752;28;20029;-65
2022/11/02 09:29:25;;;;;;;29.83;3.88;;;;;;;;;;4980597;28;20436;-65
2022/11/02 09:31:51;;;;;;;33.92;5.35;;;;;;;;;;4975908;28;20041;-65
2022/11/02 09:34:17;;;;;;;23.02;3.85;;;;;;;;;;4975366;28;20026;-65
2022/11/02 09:36:43;;;;;;;31.42;4.45;;;;;;;;;;4978862;28;20058;-65
2022/11/02 09:39:09;;;;;;;23.73;4.40;;;;;;;;;;4983433;28;20026;-65
2022/11/02 09:41:35;;;;;;;22.88;4.20;;;;;;;;;;4978827;28;20023;-67
2022/11/02 09:44:14;;;;;;;23.35;4.15;;;;;;;;;;4987824;28;20483;-66
2022/11/02 09:46:42;;;;;;;17.65;3.63;;;;;;;;;;4988194;28;20112;-67
2022/11/02 09:49:15;;;;;;;29.02;4.45;;;;;;;;;;4979442;28;20058;-66
2022/11/02 09:51:44;;;;;;;31.52;4.03;;;;;;;;;;4985847;28;20026;-66
2022/11/02 09:54:10;;;;;;;29.30;4.18;;;;;;;;;;4999407;28;20095;-65
2022/11/02 09:56:36;;;;;;;31.80;4.00;;;;;;;;;;4978265;28;20022;-65
2022/11/02 09:59:11;;;;;;;27.15;4.03;;;;;;;;;;4982286;28;20027;-65
2022/11/02 10:01:43;;;;;;;27.42;4.20;;;;;;;;;;4980031;28;20023;-65
2022/11/02 10:04:21;;;;;;;25.90;4.60;;;;;;;;;;4980928;28;20060;-65
2022/11/02 10:06:54;;;;;;;23.70;3.58;;;;;;;;;;4979728;28;20035;-65
2022/11/02 10:09:27;;;;;;;26.77;3.97;;;;;;;;;;4978383;28;20118;-65
2022/11/02 10:11:58;;;;;;;20.65;3.80;;;;;;;;;;4985508;28;20437;-65
2022/11/02 10:14:28;;;;;;;22.38;4.35;;;;;;;;;;4979495;28;20027;-65
2022/11/02 10:16:58;;;;;;;27.08;3.17;;;;;;;;;;4976345;28;20030;-66
2022/11/02 10:19:26;;;;;;;32.78;6.50;;;;;;;;;;4977721;28;20038;-65
2022/11/02 10:21:55;;;;;;;25.45;4.65;;;;;;;;;;4979244;28;20106;-65
2022/11/02 10:24:24;;;;;;;19.02;3.58;;;;;;;;;;4972269;28;20396;-65
2022/11/02 10:26:51;;;;;;;13.52;3.13;;;;;;;;;;4983877;28;20019;-65
2022/11/02 10:29:21;;;;;;;21.77;3.70;;;;;;;;;;4981167;28;20049;-65
2022/11/02 10:31:47;;;;;;;30.63;3.95;;;;;;;;;;4975201;28;20054;-65
2022/11/02 10:34:16;;;;;;;28.30;4.55;;;;;;;;;;4985436;28;20022;-65
2022/11/02 10:36:55;;;;;;;22.60;4.88;;;;;;;;;;4987064;28;20022;-65
2022/11/02 10:39:30;;;;;;;27.58;5.15;;;;;;;;;;4982634;28;20038;-65
2022/11/02 10:42:11;;;;;;;29.83;4.43;;;;;;;;;;4983206;28;20060;-65
2022/11/02 10:44:37;;;;;;;16.48;3.97;;;;;;;;;;4986915;28;20040;-65
2022/11/02 10:47:03;;;;;;;21.25;4.32;;;;;;;;;;4986158;28;20045;-65
2022/11/02 10:49:41;;;;;;;20.80;3.58;;;;;;;;;;4983483;28;20109;-65
2022/11/02 10:52:10;;;;;;;27.60;3.72;;;;;;;;;;4996373;28;20042;-65
2022/11/02 10:54:36;;;;;;;24.80;4.57;;;;;;;;;;4988085;28;20801;-65
2022/11/02 10:57:09;;;;;;;27.20;4.20;;;;;;;;;;4986644;28;20027;-65
2022/11/02 10:59:35;;;;;;;19.58;3.60;;;;;;;;;;4986064;28;20018;-65
2022/11/02 11:02:01;;;;;;;17.08;3.53;;;;;;;;;;4981845;28;20043;-66
2022/11/02 11:04:29;;;;;;;15.70;3.45;;;;;;;;;;4983915;28;20037;-65
2022/11/02 11:06:56;;;;;;;26.75;3.63;;;;;;;;;;4983949;28;20046;-65
2022/11/02 11:09:24;;;;;;;15.43;3.65;;;;;;;;;;4985079;28;20034;-65
2022/11/02 11:11:56;;;;;;;25.77;3.53;;;;;;;;;;4983488;28;20395;-65
2022/11/02 11:14:23;;;;;;;12.75;3.28;;;;;;;;;;4982863;28;20091;-65
2022/11/02 11:16:51;;;;;;;26.40;3.55;;;;;;;;;;4981769;28;20062;-65
2022/11/02 11:19:32;;;;;;;25.08;4.22;;;;;;;;;;4981192;28;20023;-65
2022/11/02 11:21:58;;;;;;;23.48;3.70;;;;;;;;;;4979913;28;20030;-65
2022/11/02 11:24:29;;;;;;;15.60;3.28;;;;;;;;;;4983660;28;20120;-65
2022/11/02 11:27:14;;;;;;;19.45;4.35;;;;;;;;;;4991026;28;20109;-66
2022/11/02 11:29:51;;;;;;;22.77;3.40;;;;;;;;;;4986996;28;20019;-65
2022/11/02 11:32:22;;;;;;;17.13;3.10;;;;;;;;;;4988779;28;20038;-65
2022/11/02 11:34:56;;;;;;;22.45;3.92;;;;;;;;;;4991979;28;20030;-65
2022/11/02 11:37:23;;;;;;;22.50;5.53;;;;;;;;;;4992139;28;20107;-65
2022/11/02 11:39:51;;;;;;;14.25;3.35;;;;;;;;;;4986720;28;20105;-65
2022/11/02 11:42:19;;;;;;;23.52;3.58;;;;;;;;;;4974056;28;20118;-65
2022/11/02 11:44:59;;;;;;;27.17;4.15;;;;;;;;;;4973922;28;20026;-65
2022/11/02 11:47:30;;;;;;;26.75;3.53;;;;;;;;;;4992158;28;20034;-65
2022/11/02 11:49:57;;;;;;;21.20;3.38;;;;;;;;;;4992665;28;20035;-65
2022/11/02 11:52:26;;;;;;;18.00;3.63;;;;;;;;;;4986466;28;20072;-65
2022/11/02 11:54:57;;;;;;;19.20;2.97;;;;;;;;;;4989193;28;20038;-65
2022/11/02 11:57:24;;;;;;;20.15;2.97;;;;;;;;;;4983884;28;20041;-65
2022/11/02 11:59:51;;;;;;;19.55;3.08;;;;;;;;;;4984991;28;20483;-65
2022/11/02 12:02:26;;;;;;;15.98;3.83;;;;;;;;;;4985742;28;20095;-67
2022/11/02 12:05:11;;;;;;;18.35;3.25;;;;;;;;;;4982902;28;20112;-66
2022/11/02 12:07:45;;;;;;;19.13;3.63;;;;;;;;;;4982501;28;20035;-66
2022/11/02 12:10:11;;;;;;;13.02;2.90;;;;;;;;;;4981647;28;20027;-66
2022/11/02 12:12:47;;;;;;;17.50;2.95;;;;;;;;;;4980191;28;20031;-65
2022/11/02 12:15:17;;;;;;;15.02;3.15;;;;;;;;;;4991634;28;20030;-66
2022/11/02 12:17:49;;;;;;;14.65;2.95;;;;;;;;;;4981555;28;20389;-66
2022/11/02 12:20:34;;;;;;;17.80;2.97;;;;;;;;;;4991187;28;20061;-66
2022/11/02 12:23:00;;;;;;;15.98;3.40;;;;;;;;;;4987957;28;20118;-66
2022/11/02 12:25:41;;;;;;;14.07;2.70;;;;;;;;;;4981694;28;20433;-66
2022/11/02 12:28:13;;;;;;;19.20;3.25;;;;;;;;;;4988144;28;20072;-66
2022/11/02 12:31:05;;;;;;;16.55;3.15;;;;;;;;;;4982005;28;20038;-66
2022/11/02 12:33:46;;;;;;;15.47;2.57;;;;;;;;;;5022279;28;20125;-66
2022/11/02 12:36:19;;;;;;;16.77;3.90;;;;;;;;;;5024029;28;20288;-65
2022/11/02 12:38:51;;;;;;;9.82;3.05;;;;;;;;;;5027865;28;20467;-66
2022/11/02 12:41:17;;;;;;;14.75;3.33;;;;;;;;;;5024204;28;20422;-65
2022/11/02 12:43:48;;;;;;;14.30;2.83;;;;;;;;;;5024852;28;20099;-65
2022/11/02 12:46:32;;;;;;;24.50;3.17;;;;;;;;;;5025206;28;20457;-65
2022/11/02 12:49:01;;;;;;;15.38;2.53;;;;;;;;;;5029248;28;20037;-65
2022/11/02 12:51:29;;;;;;;15.18;3.60;;;;;;;;;;5024950;28;20045;-65
2022/11/02 12:53:58;;;;;;;15.02;3.40;;;;;;;;;;5028766;28;20034;-65
2022/11/02 12:56:30;;;;;;;11.27;3.05;;;;;;;;;;5028256;28;20025;-65
2022/11/02 12:58:57;;;;;;;15.32;3.40;;;;;;;;;;5022564;28;20108;-65
2022/11/02 13:01:26;;;;;;;11.18;2.50;;;;;;;;;;5027500;28;20041;-65
2022/11/02 13:04:01;;;;;;;21.38;2.80;;;;;;;;;;5028932;28;20057;-65
2022/11/02 13:06:33;;;;;;;14.18;3.47;;;;;;;;;;5026701;28;20096;-65
2022/11/02 13:09:03;;;;;;;14.05;3.17;;;;;;;;;;5027870;28;20471;-65
2022/11/02 13:11:41;;;;;;;19.00;3.47;;;;;;;;;;4999635;28;20790;-65
2022/11/02 13:14:17;;;;;;;12.98;3.45;;;;;;;;;;4987868;28;20042;-65
2022/11/02 13:16:47;;;;;;;23.85;3.47;;;;;;;;;;4991827;28;20027;-65
2022/11/02 13:19:26;;;;;;;14.43;2.60;;;;;;;;;;5005902;28;20479;-65
2022/11/02 13:21:54;;;;;;;16.17;4.80;;;;;;;;;;5008380;28;20049;-65
2022/11/02 13:24:27;;;;;;;27.40;4.07;;;;;;;;;;4994275;28;20023;-65
2022/11/02 13:26:53;;;;;;;17.00;3.20;;;;;;;;;;5005016;28;20034;-65
2022/11/02 13:29:45;;;;;;;23.60;2.92;;;;;;;;;;5001445;28;20463;-65
2022/11/02 13:32:17;;;;;;;14.93;3.60;;;;;;;;;;4988930;28;20046;-65
2022/11/02 13:34:45;;;;;;;22.52;3.42;;;;;;;;;;4986200;28;20030;-65
2022/11/02 13:37:41;;;;;;;24.77;4.50;;;;;;;;;;4987949;28;20507;-65
2022/11/02 13:40:33;;;;;;;14.02;2.90;;;;;;;;;;4999019;28;20144;-65
2022/11/02 13:43:05;;;;;;;18.70;3.88;;;;;;;;;;4985264;28;20045;-65
2022/11/02 13:45:52;;;;;;;17.23;3.08;;;;;;;;;;4990209;28;20035;-65
2022/11/02 13:48:21;;;;;;;14.50;2.95;;;;;;;;;;4993709;28;20038;-65
2022/11/02 13:50:52;;;;;;;18.38;3.50;;;;;;;;;;4988759;28;20019;-65
2022/11/02 13:53:29;;;;;;;19.10;3.50;;;;;;;;;;4991871;28;20027;-65
2022/11/02 13:55:56;;;;;;;27.10;5.70;;;;;;;;;;5000227;28;20025;-70
2022/11/02 13:58:25;;;;;;;19.08;3.58;;;;;;;;;;4986692;28;20030;-65
2022/11/02 14:00:52;;;;;;;21.25;4.05;;;;;;;;;;4982934;28;20031;-65
2022/11/02 14:03:25;;;;;;;16.05;3.10;;;;;;;;;;4989465;28;20112;-65
2022/11/02 14:05:56;;;;;;;23.45;3.55;;;;;;;;;;4976616;28;20084;-64
2022/11/02 14:08:29;;;;;;;14.80;3.67;;;;;;;;;;4980303;28;20034;-64
2022/11/02 14:11:14;;;;;;;13.63;3.50;;;;;;;;;;4989702;28;20045;-64
2022/11/02 14:13:56;;;;;;;19.08;3.33;;;;;;;;;;4991206;28;20574;-64
2022/11/02 14:16:41;;;;;;;17.30;3.40;;;;;;;;;;4991484;28;20503;-64
2022/11/02 14:19:16;;;;;;;19.48;3.63;;;;;;;;;;4990151;28;20030;-64
2022/11/02 14:21:43;;;;;;;17.73;3.75;;;;;;;;;;4992970;28;20031;-64
2022/11/02 14:24:28;;;;;;;23.13;4.03;;;;;;;;;;4992585;28;20079;-64
2022/11/02 14:26:56;;;;;;;21.33;4.28;;;;;;;;;;4991054;28;20034;-64
2022/11/02 14:29:48;;;;;;;16.90;3.20;;;;;;;;;;4988078;28;20640;-64
2022/11/02 14:32:25;;;;;;;23.27;4.27;;;;;;;;;;4988393;28;20048;-64
2022/11/02 14:34:51;;;;;;;14.60;4.22;;;;;;;;;;4989454;28;20264;-62
2022/11/02 14:37:26;;;;;;;14.90;3.33;;;;;;;;;;4988400;28;20036;-61
2022/11/02 14:40:11;;;;;;;22.40;4.18;;;;;;;;;;4987818;28;20067;-62
2022/11/02 14:42:37;;;;;;;20.58;4.05;;;;;;;;;;4987331;28;20030;-62
2022/11/02 14:45:07;;;;;;;26.50;3.92;;;;;;;;;;4988911;28;20140;-62
2022/11/02 14:47:34;;;;;;;17.40;3.35;;;;;;;;;;4989363;28;20026;-62
2022/11/02 14:50:19;;;;;;;19.20;4.43;;;;;;;;;;4989914;28;20037;-62
2022/11/02 14:52:54;;;;;;;17.02;3.05;;;;;;;;;;4993973;28;20038;-62
2022/11/02 14:55:20;;;;;;;15.13;3.67;;;;;;;;;;4991190;28;20071;-62
2022/11/02 14:57:53;;;;;;;17.88;4.85;;;;;;;;;;4989098;28;20124;-62